Time;durP1;ratioP1;P1;durP2;ratioP2;P2;SDS_P1;SDS_P2;PMS_P1;PMS_P2;Temp;Humidity;BMP_temperature;BMP_pressure;BME280_temperature;BME280_humidity;BME280_pressure;Samples;Min_cycle;Max_cycle;Signal;HPM_P1;HPM_P2
2024/03/25 00:01:58;;;;;;;9.23;3.90;;;7.50;99.90;;;;;;5037218;28;20914;-61
2024/03/25 00:04:26;;;;;;;10.20;3.60;;;7.40;99.90;;;;;;5037579;28;20197;-60
2024/03/25 00:06:53;;;;;;;11.73;4.90;;;7.40;99.90;;;;;;5037090;28;20475;-60
2024/03/25 00:09:20;;;;;;;9.80;4.13;;;7.50;99.90;;;;;;5036443;28;20197;-61
2024/03/25 00:11:46;;;;;;;11.20;4.30;;;7.40;99.90;;;;;;5036017;28;20476;-61
2024/03/25 00:14:11;;;;;;;12.93;4.03;;;7.40;99.90;;;;;;5037640;28;20472;-61
2024/03/25 00:16:37;;;;;;;10.63;4.80;;;7.40;99.90;;;;;;5035822;28;20198;-60
2024/03/25 00:19:03;;;;;;;9.43;4.33;;;7.40;99.90;;;;;;5036405;28;20183;-62
2024/03/25 00:21:29;;;;;;;11.00;3.83;;;7.40;99.90;;;;;;5036272;28;20239;-61
2024/03/25 00:23:57;;;;;;;8.90;4.30;;;7.40;99.90;;;;;;5036028;28;20186;-61
2024/03/25 00:26:23;;;;;;;14.63;5.27;;;7.30;99.90;;;;;;5036602;28;20183;-61
2024/03/25 00:28:49;;;;;;;11.67;3.87;;;7.40;99.90;;;;;;5035598;28;20428;-61
2024/03/25 00:31:15;;;;;;;12.60;5.00;;;7.40;99.90;;;;;;5036209;28;20878;-61
2024/03/25 00:33:40;;;;;;;21.03;8.30;;;7.40;99.90;;;;;;5036366;28;20193;-61
2024/03/25 00:36:07;;;;;;;13.80;6.87;;;7.40;99.90;;;;;;5035399;28;20182;-61
2024/03/25 00:38:33;;;;;;;20.93;7.70;;;7.40;99.90;;;;;;5035809;28;20178;-61
2024/03/25 00:40:58;;;;;;;22.93;8.50;;;7.40;99.90;;;;;;5035912;28;20930;-61
2024/03/25 00:43:24;;;;;;;20.67;8.73;;;7.40;99.90;;;;;;5037032;28;20924;-61
2024/03/25 00:45:50;;;;;;;16.33;7.60;;;7.40;99.90;;;;;;5036091;28;20284;-61
2024/03/25 00:48:15;;;;;;;21.00;9.27;;;7.40;99.90;;;;;;5035980;28;20231;-61
2024/03/25 00:50:41;;;;;;;22.53;9.20;;;7.40;99.90;;;;;;5067439;28;20222;-61
2024/03/25 00:53:07;;;;;;;22.63;8.70;;;7.40;99.90;;;;;;5036134;28;20268;-61
2024/03/25 00:55:35;;;;;;;17.87;9.07;;;7.40;99.90;;;;;;5035093;28;20633;-62
2024/03/25 00:58:02;;;;;;;23.63;10.03;;;7.40;99.90;;;;;;5036021;28;20438;-61
2024/03/25 01:00:27;;;;;;;23.23;8.80;;;7.30;99.90;;;;;;5035456;28;20463;-61
2024/03/25 01:02:53;;;;;;;20.90;8.63;;;7.40;99.90;;;;;;5035509;28;20436;-61
2024/03/25 01:05:19;;;;;;;21.07;9.43;;;7.40;99.90;;;;;;5035556;28;20189;-61
2024/03/25 01:07:44;;;;;;;24.03;8.90;;;7.40;99.90;;;;;;5035195;28;20236;-61
2024/03/25 01:10:10;;;;;;;24.17;10.70;;;7.40;99.90;;;;;;5035399;28;20217;-61
2024/03/25 01:12:36;;;;;;;21.00;9.83;;;7.40;99.90;;;;;;5035043;28;20187;-61
2024/03/25 01:15:03;;;;;;;19.17;10.73;;;7.40;99.90;;;;;;5035213;28;20521;-61
2024/03/25 01:17:29;;;;;;;18.23;11.10;;;7.40;99.90;;;;;;5035147;28;20193;-60
2024/03/25 01:19:54;;;;;;;18.13;11.30;;;7.30;99.90;;;;;;5035844;28;20432;-61
2024/03/25 01:22:20;;;;;;;27.40;12.00;;;7.30;99.90;;;;;;5035594;28;21083;-61
2024/03/25 01:24:46;;;;;;;21.33;12.17;;;7.30;99.90;;;;;;5034884;28;20190;-60
2024/03/25 01:27:11;;;;;;;22.70;12.70;;;7.40;99.90;;;;;;5035257;28;20182;-61
2024/03/25 01:29:37;;;;;;;24.93;12.70;;;7.40;99.90;;;;;;5034605;28;20192;-61
2024/03/25 01:32:04;;;;;;;26.87;13.40;;;7.40;99.90;;;;;;5035442;28;20209;-61
2024/03/25 01:34:30;;;;;;;21.90;11.57;;;7.40;99.90;;;;;;5034630;28;20193;-61
2024/03/25 01:36:56;;;;;;;22.47;13.80;;;7.30;99.90;;;;;;5035339;28;20455;-61
2024/03/25 01:39:21;;;;;;;23.17;11.50;;;7.30;99.90;;;;;;5035463;28;20198;-61
2024/03/25 01:41:47;;;;;;;18.93;9.60;;;7.30;99.90;;;;;;5034296;28;20922;-61
2024/03/25 01:44:13;;;;;;;17.53;9.03;;;7.30;99.90;;;;;;5035545;28;20189;-61
2024/03/25 01:46:39;;;;;;;21.27;10.17;;;7.30;99.90;;;;;;5034410;28;20217;-61
2024/03/25 01:49:06;;;;;;;18.80;8.87;;;7.20;99.90;;;;;;5034850;28;20217;-61
2024/03/25 01:51:32;;;;;;;20.73;8.27;;;7.30;99.90;;;;;;5034056;28;20917;-61
2024/03/25 01:53:59;;;;;;;23.77;8.40;;;7.30;99.90;;;;;;5035141;28;20425;-61
2024/03/25 01:56:26;;;;;;;19.10;8.50;;;7.20;99.90;;;;;;5034334;28;20494;-61
2024/03/25 01:58:52;;;;;;;19.47;6.77;;;7.20;99.90;;;;;;5034646;28;20437;-61
2024/03/25 02:01:19;;;;;;;16.13;6.50;;;7.10;99.90;;;;;;5034418;28;20481;-61
2024/03/25 02:03:45;;;;;;;18.27;6.80;;;7.10;99.90;;;;;;5034496;28;20182;-61
2024/03/25 02:06:15;;;;;;;19.20;6.37;;;7.10;99.90;;;;;;5034655;28;20461;-61
2024/03/25 02:08:41;;;;;;;15.27;6.20;;;7.00;99.90;;;;;;5033045;28;20189;-61
2024/03/25 02:11:08;;;;;;;13.47;5.27;;;7.00;99.90;;;;;;5034255;28;20464;-62
2024/03/25 02:13:35;;;;;;;13.53;4.73;;;7.00;99.90;;;;;;5034099;28;20435;-61
2024/03/25 02:16:01;;;;;;;18.47;5.30;;;7.00;99.90;;;;;;5034960;28;20451;-61
2024/03/25 02:18:27;;;;;;;13.73;5.47;;;7.10;99.90;;;;;;5033922;28;20528;-60
2024/03/25 02:20:53;;;;;;;12.80;4.60;;;7.10;99.90;;;;;;5035437;28;21304;-61
2024/03/25 02:23:19;;;;;;;14.83;6.60;;;7.10;99.90;;;;;;5034287;28;20239;-62
2024/03/25 02:25:50;;;;;;;13.40;4.73;;;7.10;99.90;;;;;;5034669;28;20647;-61
2024/03/25 02:28:16;;;;;;;13.90;4.80;;;7.10;99.90;;;;;;5034408;28;20433;-61
2024/03/25 02:30:42;;;;;;;10.80;4.80;;;7.10;99.90;;;;;;5033922;28;20465;-61
2024/03/25 02:33:08;;;;;;;13.47;4.63;;;7.10;99.90;;;;;;5034637;28;20938;-61
2024/03/25 02:35:35;;;;;;;10.73;3.93;;;7.10;99.90;;;;;;5033906;28;20208;-61
2024/03/25 02:38:01;;;;;;;9.83;4.90;;;7.10;99.90;;;;;;5034878;28;20727;-62
2024/03/25 02:40:27;;;;;;;11.60;4.10;;;7.00;99.90;;;;;;5033675;28;20429;-61
2024/03/25 02:42:53;;;;;;;8.63;3.87;;;7.00;99.90;;;;;;5034876;28;20431;-61
2024/03/25 02:45:19;;;;;;;12.33;4.80;;;7.10;99.90;;;;;;5034350;28;20428;-61
2024/03/25 02:47:46;;;;;;;16.07;4.70;;;7.00;99.90;;;;;;5033999;28;21138;-61
2024/03/25 02:50:12;;;;;;;17.00;4.27;;;7.00;99.90;;;;;;5034581;28;20259;-61
2024/03/25 02:52:37;;;;;;;14.77;4.30;;;7.00;99.90;;;;;;5033874;28;20424;-61
2024/03/25 02:55:03;;;;;;;12.83;4.40;;;6.90;99.90;;;;;;5034573;28;20244;-61
2024/03/25 02:57:29;;;;;;;15.07;4.63;;;6.90;99.90;;;;;;5033190;28;20190;-61
2024/03/25 02:59:55;;;;;;;10.90;3.87;;;6.80;99.90;;;;;;5034628;28;20425;-62
2024/03/25 03:02:20;;;;;;;10.57;4.53;;;6.80;99.90;;;;;;5034237;28;20193;-61
2024/03/25 03:04:46;;;;;;;15.23;4.67;;;6.80;99.90;;;;;;5034341;28;20275;-61
2024/03/25 03:07:12;;;;;;;16.10;4.97;;;6.80;99.90;;;;;;5034643;28;20197;-61
2024/03/25 03:09:37;;;;;;;10.27;4.47;;;6.80;99.90;;;;;;5033465;28;20735;-61
2024/03/25 03:12:04;;;;;;;19.03;6.07;;;6.70;99.90;;;;;;5033947;28;20214;-61
2024/03/25 03:14:29;;;;;;;17.37;6.33;;;6.60;99.90;;;;;;5033600;28;20783;-61
2024/03/25 03:16:57;;;;;;;13.20;5.53;;;6.50;99.90;;;;;;5034660;28;20432;-61
2024/03/25 03:19:25;;;;;;;13.30;6.70;;;6.50;99.90;;;;;;5033533;28;20550;-61
2024/03/25 03:21:51;;;;;;;12.50;5.70;;;6.50;99.90;;;;;;5034791;28;20890;-61
2024/03/25 03:24:18;;;;;;;14.80;6.20;;;6.50;99.90;;;;;;5033742;28;20507;-61
2024/03/25 03:26:44;;;;;;;16.90;6.00;;;6.40;99.90;;;;;;5034683;28;20938;-61
2024/03/25 03:29:10;;;;;;;13.60;5.90;;;6.40;99.90;;;;;;5033799;28;20433;-61
2024/03/25 03:31:36;;;;;;;15.03;5.90;;;6.50;99.90;;;;;;5033121;28;21076;-62
2024/03/25 03:34:02;;;;;;;16.90;5.97;;;6.50;99.90;;;;;;5035644;28;20417;-61
2024/03/25 03:36:28;;;;;;;16.43;5.90;;;6.60;99.90;;;;;;5036653;28;20484;-61
2024/03/25 03:38:53;;;;;;;17.77;6.47;;;6.50;99.90;;;;;;5038117;28;20778;-61
2024/03/25 03:41:19;;;;;;;12.57;6.73;;;6.60;99.90;;;;;;5036827;28;20174;-61
2024/03/25 03:43:45;;;;;;;20.60;6.33;;;6.60;99.90;;;;;;5037917;28;20668;-61
2024/03/25 03:46:11;;;;;;;9.40;5.73;;;6.50;99.90;;;;;;5037533;28;20566;-61
2024/03/25 03:48:38;;;;;;;14.10;6.47;;;6.50;99.90;;;;;;5036714;28;20198;-61
2024/03/25 03:51:04;;;;;;;14.97;6.40;;;6.50;99.90;;;;;;5037114;28;20214;-61
2024/03/25 03:53:30;;;;;;;19.07;8.30;;;6.50;99.90;;;;;;5036628;28;20507;-61
2024/03/25 03:55:56;;;;;;;13.40;6.10;;;6.40;99.90;;;;;;5038080;28;20515;-61
2024/03/25 03:58:23;;;;;;;12.03;5.53;;;6.30;99.90;;;;;;5036818;28;20662;-61
2024/03/25 04:00:49;;;;;;;15.20;6.33;;;6.30;99.90;;;;;;5037600;28;20428;-61
2024/03/25 04:03:15;;;;;;;19.57;7.07;;;6.30;99.90;;;;;;5037371;28;20437;-61
2024/03/25 04:05:41;;;;;;;16.17;6.27;;;6.30;99.90;;;;;;5037730;28;20772;-61
2024/03/25 04:08:08;;;;;;;17.13;7.57;;;6.30;99.90;;;;;;5035424;28;20648;-61
2024/03/25 04:10:34;;;;;;;16.83;6.20;;;6.30;99.90;;;;;;5036143;28;20209;-61
2024/03/25 04:13:00;;;;;;;17.73;6.87;;;6.30;99.90;;;;;;5037269;28;20424;-61
2024/03/25 04:15:26;;;;;;;15.50;7.20;;;6.30;99.90;;;;;;5035012;28;20928;-61
2024/03/25 04:17:52;;;;;;;14.47;5.83;;;6.30;99.90;;;;;;5037481;28;20190;-61
2024/03/25 04:20:18;;;;;;;11.73;6.30;;;6.20;99.90;;;;;;5035940;28;20434;-61
2024/03/25 04:22:45;;;;;;;18.17;6.90;;;6.30;99.90;;;;;;5036378;28;20437;-61
2024/03/25 04:25:12;;;;;;;14.67;7.17;;;6.30;99.90;;;;;;5036809;28;20432;-61
2024/03/25 04:27:41;;;;;;;11.27;6.60;;;6.30;99.90;;;;;;5036144;28;20433;-60
2024/03/25 04:30:08;;;;;;;12.13;5.93;;;6.30;99.90;;;;;;5036734;28;20469;-61
2024/03/25 04:32:34;;;;;;;12.53;6.50;;;6.30;99.90;;;;;;5036006;28;20537;-61
2024/03/25 04:35:00;;;;;;;10.63;5.57;;;6.30;99.90;;;;;;5037038;28;20493;-61
2024/03/25 04:37:27;;;;;;;13.93;6.67;;;6.30;99.90;;;;;;5035806;28;20433;-61
2024/03/25 04:39:54;;;;;;;18.50;8.03;;;6.30;99.90;;;;;;5037397;28;20432;-61
2024/03/25 04:42:20;;;;;;;14.80;7.63;;;6.30;99.90;;;;;;5035480;28;21040;-61
2024/03/25 04:44:45;;;;;;;17.40;5.87;;;6.30;99.90;;;;;;5068068;28;20841;-61
2024/03/25 04:47:12;;;;;;;18.00;6.70;;;6.30;99.90;;;;;;5036213;28;20432;-61
2024/03/25 04:49:37;;;;;;;13.70;6.70;;;6.30;99.90;;;;;;5035775;28;20187;-60
2024/03/25 04:52:04;;;;;;;10.77;6.13;;;6.30;99.90;;;;;;5036755;28;20436;-61
2024/03/25 04:54:30;;;;;;;17.53;6.70;;;6.30;99.90;;;;;;5035242;28;20193;-61
2024/03/25 04:56:56;;;;;;;16.37;6.30;;;6.30;99.90;;;;;;5036711;28;20482;-61
2024/03/25 04:59:21;;;;;;;14.83;6.57;;;6.30;99.90;;;;;;5035250;28;20508;-61
2024/03/25 05:01:47;;;;;;;11.20;5.83;;;6.30;99.90;;;;;;5036245;28;20194;-61
2024/03/25 05:04:13;;;;;;;16.43;6.27;;;6.30;99.90;;;;;;5035915;28;20185;-61
2024/03/25 05:06:39;;;;;;;14.57;6.43;;;6.30;99.90;;;;;;5033871;28;21330;-61
2024/03/25 05:09:06;;;;;;;11.97;6.50;;;6.30;99.90;;;;;;5035925;28;20236;-61
2024/03/25 05:11:32;;;;;;;13.27;6.67;;;6.30;99.90;;;;;;5034987;28;20209;-61
2024/03/25 05:13:58;;;;;;;14.73;6.40;;;6.30;99.90;;;;;;5036185;28;20999;-61
2024/03/25 05:16:24;;;;;;;14.73;6.53;;;6.20;99.90;;;;;;5035321;28;20417;-61
2024/03/25 05:18:49;;;;;;;12.90;5.90;;;6.20;99.90;;;;;;5036015;28;20439;-61
2024/03/25 05:21:15;;;;;;;13.70;6.03;;;6.20;99.90;;;;;;5035327;28;20184;-61
2024/03/25 05:23:42;;;;;;;14.10;6.83;;;6.20;99.90;;;;;;5035445;28;20239;-62
2024/03/25 05:26:08;;;;;;;18.97;6.73;;;6.20;99.90;;;;;;5035641;28;20432;-61
2024/03/25 05:28:33;;;;;;;12.10;6.07;;;6.20;99.90;;;;;;5035141;28;20436;-61
2024/03/25 05:31:09;;;;;;;13.03;7.33;;;6.30;99.90;;;;;;5035323;28;20469;-61
2024/03/25 05:33:35;;;;;;;19.80;7.10;;;6.30;99.90;;;;;;5035606;28;20189;-61
2024/03/25 05:36:01;;;;;;;16.80;6.97;;;6.20;99.90;;;;;;5035670;28;20535;-61
2024/03/25 05:38:28;;;;;;;14.43;6.70;;;6.20;99.90;;;;;;5032885;28;20437;-61
2024/03/25 05:40:54;;;;;;;15.97;7.20;;;6.10;99.90;;;;;;5035926;28;20463;-61
2024/03/25 05:43:20;;;;;;;13.80;6.30;;;6.10;99.90;;;;;;5034456;28;20558;-61
2024/03/25 05:45:56;;;;;;;15.17;6.70;;;6.10;99.90;;;;;;5034302;28;20783;-61
2024/03/25 05:48:22;;;;;;;11.00;6.33;;;6.10;99.90;;;;;;5034463;28;21128;-62
2024/03/25 05:51:05;;;;;;;13.50;6.90;;;6.20;99.90;;;;;;5033423;28;20986;-61
2024/03/25 05:53:31;;;;;;;12.47;5.90;;;6.20;99.90;;;;;;5033810;28;20779;-61
2024/03/25 05:55:59;;;;;;;12.60;5.80;;;6.30;99.90;;;;;;5035265;28;20471;-61
2024/03/25 05:58:25;;;;;;;19.37;8.33;;;6.20;99.90;;;;;;5034566;28;20962;-61
2024/03/25 06:00:52;;;;;;;18.53;6.80;;;6.20;99.90;;;;;;5034859;28;20439;-61
2024/03/25 06:03:19;;;;;;;12.60;7.00;;;6.20;99.90;;;;;;5034239;28;20485;-61
2024/03/25 06:05:44;;;;;;;17.53;6.40;;;6.20;99.90;;;;;;5035792;28;21003;-61
2024/03/25 06:08:24;;;;;;;14.07;6.27;;;6.30;99.90;;;;;;5033805;28;20448;-61
2024/03/25 06:10:51;;;;;;;13.23;6.50;;;6.30;99.90;;;;;;5035002;28;20221;-61
2024/03/25 06:13:16;;;;;;;13.57;7.17;;;6.30;99.90;;;;;;5034573;28;20425;-61
2024/03/25 06:15:42;;;;;;;12.43;6.50;;;6.40;99.90;;;;;;5035256;28;20462;-61
2024/03/25 06:18:08;;;;;;;20.87;6.07;;;6.40;99.90;;;;;;5033948;28;20197;-61
2024/03/25 06:20:33;;;;;;;16.23;6.37;;;6.50;99.90;;;;;;5034888;28;20185;-61
2024/03/25 06:22:59;;;;;;;17.43;6.33;;;6.60;99.90;;;;;;5035163;28;20578;-61
2024/03/25 06:25:25;;;;;;;12.80;7.17;;;6.70;99.90;;;;;;5034087;28;20202;-61
2024/03/25 06:27:50;;;;;;;14.40;6.53;;;6.80;99.90;;;;;;5034298;28;20192;-61
2024/03/25 06:35:45;;;;;;;16.70;6.50;;;7.10;99.90;;;;;;5035262;28;20657;-61
2024/03/25 06:38:11;;;;;;;15.47;6.53;;;7.20;99.90;;;;;;5033780;28;20925;-61
2024/03/25 06:40:37;;;;;;;12.60;5.80;;;7.30;99.90;;;;;;5033232;28;20420;-61
2024/03/25 06:43:04;;;;;;;17.17;6.30;;;7.30;99.90;;;;;;5036307;28;20420;-61
2024/03/25 06:45:30;;;;;;;15.40;6.77;;;7.30;99.90;;;;;;5034401;28;20472;-61
2024/03/25 06:47:57;;;;;;;12.10;6.03;;;7.30;99.90;;;;;;5034876;28;21279;-61
2024/03/25 06:50:23;;;;;;;15.00;7.13;;;7.30;99.90;;;;;;5033473;28;20475;-62
2024/03/25 06:52:49;;;;;;;14.10;6.03;;;7.20;99.90;;;;;;5035431;28;20437;-61
2024/03/25 06:55:15;;;;;;;13.53;6.50;;;7.30;99.90;;;;;;5034248;28;20190;-61
2024/03/25 06:57:40;;;;;;;17.00;6.90;;;7.40;99.90;;;;;;5035007;28;20432;-60
2024/03/25 07:00:10;;;;;;;16.83;5.73;;;7.40;99.90;;;;;;5034716;28;20464;-60
2024/03/25 07:02:36;;;;;;;14.23;6.90;;;7.50;99.90;;;;;;5034454;28;20718;-60
2024/03/25 07:05:02;;;;;;;11.60;5.43;;;7.60;99.90;;;;;;5034358;28;20440;-60
2024/03/25 07:07:27;;;;;;;23.37;5.80;;;7.60;99.90;;;;;;5034172;28;20918;-60
2024/03/25 07:09:54;;;;;;;13.33;6.87;;;7.70;99.90;;;;;;5038851;28;20235;-60
2024/03/25 07:12:20;;;;;;;15.37;5.67;;;7.80;99.90;;;;;;5035276;28;20788;-60
2024/03/25 07:14:45;;;;;;;13.90;5.23;;;7.90;99.90;;;;;;5036449;28;20581;-60
2024/03/25 07:17:11;;;;;;;16.40;6.30;;;8.00;99.90;;;;;;5042801;28;20959;-60
2024/03/25 07:19:37;;;;;;;12.73;5.23;;;8.00;99.90;;;;;;5019668;28;20190;-60
2024/03/25 07:22:02;;;;;;;11.80;6.23;;;8.10;99.90;;;;;;5038975;28;20189;-59
2024/03/25 07:24:28;;;;;;;13.83;6.47;;;8.20;99.90;;;;;;5039258;28;20208;-60
2024/03/25 07:26:54;;;;;;;15.40;6.40;;;8.10;99.90;;;;;;5039032;28;20675;-60
2024/03/25 07:29:19;;;;;;;14.87;6.03;;;8.10;99.90;;;;;;5038464;28;20842;-60
2024/03/25 07:31:45;;;;;;;12.00;5.30;;;8.00;99.90;;;;;;5039077;28;20214;-60
2024/03/25 07:34:11;;;;;;;16.17;5.73;;;8.00;99.90;;;;;;5036559;28;20210;-60
2024/03/25 07:36:38;;;;;;;17.10;5.57;;;8.20;99.90;;;;;;5035626;28;20746;-59
2024/03/25 07:39:10;;;;;;;10.73;4.93;;;8.30;99.90;;;;;;5036371;28;20572;-60
2024/03/25 07:41:39;;;;;;;12.73;4.77;;;8.50;99.90;;;;;;5038362;28;20802;-60
2024/03/25 07:44:05;;;;;;;13.83;5.03;;;8.60;99.90;;;;;;5038032;28;21078;-60
2024/03/25 07:46:31;;;;;;;11.40;5.23;;;8.70;99.90;;;;;;5037766;28;20429;-60
2024/03/25 07:48:57;;;;;;;12.53;5.60;;;8.90;99.90;;;;;;5037932;28;20190;-60
2024/03/25 07:51:23;;;;;;;10.20;5.37;;;9.00;99.90;;;;;;5036347;28;20459;-60
2024/03/25 07:53:48;;;;;;;17.40;5.57;;;9.10;99.90;;;;;;5038247;28;20240;-60
2024/03/25 07:56:15;;;;;;;12.90;5.50;;;9.10;99.90;;;;;;5036995;28;21233;-60
2024/03/25 07:58:41;;;;;;;13.37;8.00;;;9.30;99.90;;;;;;5037250;28;20182;-60
2024/03/25 08:01:07;;;;;;;11.83;5.07;;;9.30;99.90;;;;;;5036946;28;20440;-60
2024/03/25 08:03:33;;;;;;;14.13;5.00;;;9.50;99.90;;;;;;5037748;28;20439;-60
2024/03/25 08:05:59;;;;;;;11.67;4.90;;;9.60;99.90;;;;;;5035975;28;20523;-60
2024/03/25 08:08:25;;;;;;;18.30;5.60;;;9.70;99.90;;;;;;5035984;28;21066;-60
2024/03/25 08:10:52;;;;;;;10.60;4.50;;;9.80;99.90;;;;;;5036124;28;20221;-60
2024/03/25 08:13:19;;;;;;;15.37;5.40;;;10.00;99.90;;;;;;5037445;28;20644;-60
2024/03/25 08:15:45;;;;;;;11.97;4.73;;;10.00;99.90;;;;;;5037203;28;20441;-59
2024/03/25 08:18:11;;;;;;;15.27;5.43;;;10.00;99.90;;;;;;5035620;28;20426;-60
2024/03/25 08:20:37;;;;;;;16.60;6.10;;;10.00;99.90;;;;;;5034962;28;20463;-60
2024/03/25 08:23:03;;;;;;;11.33;4.43;;;10.00;99.90;;;;;;5035383;28;20217;-60
2024/03/25 08:25:29;;;;;;;12.93;4.83;;;10.00;99.90;;;;;;5036419;28;21319;-60
2024/03/25 08:27:55;;;;;;;15.73;4.47;;;9.90;99.90;;;;;;5035423;28;21125;-60
2024/03/25 08:30:20;;;;;;;10.80;4.77;;;9.90;99.90;;;;;;5035621;28;20229;-60
2024/03/25 08:32:46;;;;;;;15.13;5.43;;;9.90;99.90;;;;;;5035469;28;20212;-60
2024/03/25 08:35:12;;;;;;;10.00;3.20;;;9.80;99.90;;;;;;5035195;28;20203;-60
2024/03/25 08:37:38;;;;;;;12.20;4.40;;;9.90;99.90;;;;;;5035345;28;20194;-60
2024/03/25 08:40:05;;;;;;;12.57;3.87;;;10.00;99.90;;;;;;5067387;28;20448;-60
2024/03/25 08:42:30;;;;;;;13.97;4.10;;;10.10;99.90;;;;;;5035906;28;20181;-60
2024/03/25 08:44:56;;;;;;;12.20;4.50;;;10.20;99.90;;;;;;5036121;28;20870;-60
2024/03/25 08:47:22;;;;;;;9.17;4.47;;;10.20;99.90;;;;;;5034934;28;20185;-60
2024/03/25 08:49:48;;;;;;;7.40;3.43;;;10.30;99.90;;;;;;5035325;28;20519;-60
2024/03/25 08:52:13;;;;;;;13.83;4.80;;;10.30;99.90;;;;;;5034646;28;20236;-60
2024/03/25 08:54:39;;;;;;;9.83;4.27;;;10.20;99.90;;;;;;5035471;28;20190;-60
2024/03/25 08:57:05;;;;;;;10.80;4.00;;;10.10;99.90;;;;;;5034439;28;20195;-60
2024/03/25 08:59:30;;;;;;;10.90;4.23;;;10.10;99.90;;;;;;5034273;28;20935;-60
2024/03/25 09:01:56;;;;;;;7.40;3.30;;;10.20;99.90;;;;;;5033764;28;20273;-60
2024/03/25 09:04:22;;;;;;;12.93;3.33;;;10.10;99.90;;;;;;5034877;28;20574;-59
2024/03/25 09:06:47;;;;;;;7.83;3.60;;;10.10;99.90;;;;;;5049776;28;20217;-59
2024/03/25 09:11:57;;;;;;;9.87;3.43;;;10.20;99.90;;;;;;5033520;28;20221;-59
2024/03/25 09:14:23;;;;;;;8.43;3.27;;;10.10;99.90;;;;;;5067557;28;20445;-60
2024/03/25 09:16:49;;;;;;;11.67;4.40;;;10.10;99.90;;;;;;5034630;28;20221;-60
2024/03/25 09:19:14;;;;;;;11.60;3.20;;;10.10;99.90;;;;;;5034087;28;20187;-60
2024/03/25 09:21:40;;;;;;;7.60;3.20;;;10.10;99.90;;;;;;5034670;28;20288;-60
2024/03/25 09:24:06;;;;;;;7.90;2.67;;;10.10;99.90;;;;;;5034039;28;20186;-60
2024/03/25 09:26:32;;;;;;;9.70;2.63;;;10.00;99.90;;;;;;5035321;28;20190;-60
2024/03/25 09:28:58;;;;;;;10.43;2.70;;;9.90;99.90;;;;;;5033488;28;20438;-60
2024/03/25 09:31:23;;;;;;;9.13;2.90;;;9.90;99.90;;;;;;5034703;28;20242;-60
2024/03/25 09:33:49;;;;;;;11.93;2.43;;;9.90;99.90;;;;;;5034641;28;20189;-60
2024/03/25 09:36:14;;;;;;;9.93;2.37;;;9.90;99.90;;;;;;5034187;28;20206;-60
2024/03/25 09:38:40;;;;;;;6.33;2.77;;;10.10;99.90;;;;;;5034394;28;20243;-60
2024/03/25 09:41:08;;;;;;;9.10;2.73;;;10.30;99.90;;;;;;5033785;28;20187;-60
2024/03/25 09:43:45;;;;;;;7.47;2.77;;;10.50;99.90;;;;;;5034729;28;20299;-60
2024/03/25 09:46:11;;;;;;;8.03;2.37;;;10.60;99.90;;;;;;5034027;28;20423;-60
2024/03/25 09:48:37;;;;;;;8.80;2.10;;;10.60;99.90;;;;;;5033802;28;20443;-60
2024/03/25 09:51:04;;;;;;;5.50;2.10;;;10.50;99.90;;;;;;5033541;28;20471;-60
2024/03/25 09:53:30;;;;;;;6.67;2.60;;;10.50;99.90;;;;;;5034521;28;20503;-60
2024/03/25 09:55:57;;;;;;;8.47;2.40;;;10.60;99.90;;;;;;5033354;28;21001;-60
2024/03/25 09:58:25;;;;;;;7.80;2.80;;;10.60;99.90;;;;;;5033870;28;20262;-60
2024/03/25 10:00:51;;;;;;;6.33;2.30;;;10.60;99.90;;;;;;5033582;28;20841;-60
2024/03/25 10:03:16;;;;;;;5.77;2.00;;;10.50;99.90;;;;;;5033723;28;20584;-60
2024/03/25 10:05:42;;;;;;;5.00;1.93;;;10.50;99.90;;;;;;5034377;28;20189;-60
2024/03/25 10:08:08;;;;;;;6.73;2.10;;;10.50;99.90;;;;;;5033513;28;20275;-60
2024/03/25 10:10:34;;;;;;;10.93;4.43;;;10.70;99.90;;;;;;5033977;28;20214;-60
2024/03/25 10:13:01;;;;;;;5.10;2.13;;;11.00;99.90;;;;;;5033142;28;20282;-60
2024/03/25 10:15:27;;;;;;;5.03;2.33;;;11.20;99.90;;;;;;5034080;28;20983;-60
2024/03/25 10:17:53;;;;;;;4.90;2.10;;;11.40;99.90;;;;;;5033551;28;20554;-59
2024/03/25 10:20:18;;;;;;;4.80;1.87;;;11.60;99.90;;;;;;5033757;28;20439;-60
2024/03/25 10:22:46;;;;;;;3.97;1.70;;;11.70;99.90;;;;;;5034108;28;20672;-58
2024/03/25 10:25:23;;;;;;;4.50;1.90;;;11.60;99.90;;;;;;5034329;28;20628;-60
2024/03/25 10:27:55;;;;;;;7.20;1.90;;;11.50;99.30;;;;;;5033332;28;20440;-60
2024/03/25 10:30:22;;;;;;;2.73;2.00;;;11.40;99.70;;;;;;5033849;28;20533;-60
2024/03/25 10:33:04;;;;;;;4.50;1.90;;;11.40;99.60;;;;;;5033141;28;21782;-60
2024/03/25 10:35:32;;;;;;;4.63;2.00;;;11.30;99.90;;;;;;5034077;28;20421;-60
2024/03/25 10:38:10;;;;;;;5.10;2.07;;;11.20;99.90;;;;;;5032699;28;20976;-60
2024/03/25 10:40:38;;;;;;;5.23;1.97;;;11.30;99.90;;;;;;5033586;28;20502;-59
2024/03/25 10:43:06;;;;;;;6.60;1.97;;;11.30;99.90;;;;;;5034622;28;20425;-58
2024/03/25 10:45:34;;;;;;;3.90;1.73;;;11.30;99.90;;;;;;5038244;28;20478;-60
2024/03/25 10:48:20;;;;;;;3.63;1.70;;;11.50;99.90;;;;;;5036733;28;20425;-60
2024/03/25 10:50:46;;;;;;;3.93;1.90;;;11.60;99.90;;;;;;5037306;28;20526;-60
2024/03/25 10:53:14;;;;;;;7.67;3.13;;;11.70;99.90;;;;;;5037446;28;20424;-60
2024/03/25 10:55:40;;;;;;;6.97;2.53;;;11.70;99.90;;;;;;5037739;28;20428;-60
2024/03/25 10:58:07;;;;;;;5.43;2.20;;;11.70;99.90;;;;;;5036791;28;21006;-60
2024/03/25 11:00:34;;;;;;;6.80;2.00;;;11.90;99.90;;;;;;5037589;28;20437;-60
2024/03/25 11:03:01;;;;;;;7.50;2.10;;;12.00;99.50;;;;;;5036673;28;20424;-60
2024/03/25 11:05:27;;;;;;;8.00;2.10;;;12.20;99.60;;;;;;5037385;28;20490;-60
2024/03/25 11:07:53;;;;;;;2.40;1.63;;;12.30;98.70;;;;;;5036821;28;20969;-60
2024/03/25 11:10:19;;;;;;;4.50;2.60;;;12.40;98.70;;;;;;5037108;28;20468;-60
2024/03/25 11:12:45;;;;;;;9.97;2.43;;;12.50;98.50;;;;;;5037381;28;20178;-60
2024/03/25 11:15:11;;;;;;;7.07;2.30;;;12.60;98.30;;;;;;5037405;28;20174;-60
2024/03/25 11:17:47;;;;;;;4.03;2.60;;;12.80;97.90;;;;;;5036875;28;21315;-59
2024/03/25 11:20:16;;;;;;;5.40;2.17;;;13.00;98.20;;;;;;5037509;28;20517;-61
2024/03/25 11:22:49;;;;;;;8.90;2.10;;;13.20;97.50;;;;;;5037220;28;20487;-61
2024/03/25 11:25:15;;;;;;;4.37;1.60;;;13.10;95.80;;;;;;5036969;28;20467;-61
2024/03/25 11:27:44;;;;;;;9.03;2.37;;;13.10;94.80;;;;;;5036663;28;20438;-61
2024/03/25 11:30:13;;;;;;;8.20;2.23;;;13.10;94.60;;;;;;5036711;28;20910;-61
2024/03/25 11:33:00;;;;;;;5.10;1.97;;;13.10;94.80;;;;;;5036842;28;20481;-61
2024/03/25 11:35:26;;;;;;;4.80;2.00;;;13.20;94.80;;;;;;5035682;28;20433;-61
2024/03/25 11:37:52;;;;;;;3.63;1.73;;;13.20;94.50;;;;;;5036615;28;20520;-61
2024/03/25 11:40:18;;;;;;;5.00;2.10;;;13.30;94.60;;;;;;5036907;28;20616;-61
2024/03/25 11:42:45;;;;;;;6.80;2.73;;;13.20;94.60;;;;;;5035521;28;20433;-61
2024/03/25 11:45:21;;;;;;;3.40;1.80;;;13.20;96.10;;;;;;5036758;28;20447;-61
2024/03/25 11:47:49;;;;;;;7.10;1.70;;;13.10;96.50;;;;;;5036477;28;20438;-61
2024/03/25 11:50:16;;;;;;;7.60;2.60;;;13.20;96.10;;;;;;5037002;28;20500;-61
2024/03/25 11:52:42;;;;;;;7.77;2.00;;;13.10;95.80;;;;;;5069217;28;20429;-61
2024/03/25 11:55:09;;;;;;;4.90;1.70;;;13.10;95.20;;;;;;5034869;28;21170;-61
2024/03/25 11:57:38;;;;;;;5.13;1.90;;;13.20;94.70;;;;;;5036846;28;21275;-61
2024/03/25 12:00:10;;;;;;;7.70;1.97;;;13.30;95.10;;;;;;5036480;28;20787;-61
2024/03/25 12:02:37;;;;;;;4.87;2.10;;;13.40;95.50;;;;;;5036370;28;20425;-61
2024/03/25 12:05:05;;;;;;;2.83;1.73;;;13.40;94.70;;;;;;5036381;28;20430;-61
2024/03/25 12:07:32;;;;;;;5.33;1.90;;;13.40;93.00;;;;;;5036300;28;20473;-61
2024/03/25 12:12:43;;;;;;;5.27;1.70;;;13.30;93.40;;;;;;5035791;28;20490;-61
2024/03/25 12:15:09;;;;;;;6.83;2.07;;;13.10;93.70;;;;;;5036146;28;20420;-61
2024/03/25 12:17:35;;;;;;;3.77;1.50;;;13.00;93.30;;;;;;5036166;28;20633;-61
2024/03/25 12:20:09;;;;;;;6.30;1.70;;;13.10;93.90;;;;;;5034647;28;20428;-61
2024/03/25 12:22:35;;;;;;;2.60;1.37;;;13.10;94.80;;;;;;5036206;28;20178;-61
2024/03/25 12:25:04;;;;;;;5.30;1.40;;;13.30;94.70;;;;;;5036213;28;21009;-61
2024/03/25 12:27:29;;;;;;;5.70;1.90;;;13.60;95.70;;;;;;5035832;28;21189;-61
2024/03/25 12:30:06;;;;;;;6.17;2.00;;;13.70;93.50;;;;;;5037669;28;20440;-61
2024/03/25 12:32:44;;;;;;;4.43;1.60;;;13.90;93.10;;;;;;5038043;28;20284;-62
2024/03/25 12:35:19;;;;;;;4.20;1.70;;;14.00;92.30;;;;;;5037968;28;20424;-61
2024/03/25 12:37:46;;;;;;;5.17;2.10;;;14.10;91.80;;;;;;5035855;28;20934;-61
2024/03/25 12:40:25;;;;;;;6.00;1.90;;;14.00;89.00;;;;;;5070934;28;20459;-61
2024/03/25 12:42:52;;;;;;;7.20;1.90;;;14.00;89.90;;;;;;5038490;28;20798;-61
2024/03/25 12:45:19;;;;;;;5.53;2.20;;;13.90;87.10;;;;;;5039293;28;20845;-61
2024/03/25 12:47:45;;;;;;;5.50;2.40;;;13.50;88.40;;;;;;5037457;28;20495;-61
2024/03/25 12:50:11;;;;;;;5.23;2.20;;;13.40;89.20;;;;;;5067750;28;20433;-61
2024/03/25 12:52:36;;;;;;;6.07;1.70;;;13.40;90.20;;;;;;5035782;28;20191;-61
2024/03/25 12:55:03;;;;;;;4.50;1.60;;;13.40;90.00;;;;;;5035808;28;20718;-61